createdAt,value
2019-03-27T09:16:53.898Z,7.25
2019-03-27T09:21:57.845Z,6.90
2019-03-27T09:27:01.867Z,6.80
2019-03-27T09:32:05.910Z,5.25
2019-03-27T09:37:09.857Z,6.05
2019-03-27T09:42:13.858Z,5.50
2019-03-27T09:47:17.829Z,5.33
2019-03-27T09:52:21.780Z,5.30
2019-03-27T09:57:25.772Z,4.83
2019-03-27T10:02:29.731Z,5.33
2019-03-27T10:07:33.728Z,4.20
2019-03-27T10:12:37.733Z,3.95
2019-03-27T10:17:41.671Z,5.22
2019-03-27T10:22:45.653Z,4.92
2019-03-27T10:27:49.584Z,5.28
2019-03-27T10:32:53.846Z,5.03
2019-03-27T10:37:57.832Z,6.08
2019-03-27T10:43:01.833Z,5.35
2019-03-27T10:48:05.802Z,4.70
2019-03-27T10:53:09.844Z,4.50
2019-03-27T10:58:13.867Z,5.10
2019-03-27T11:03:17.923Z,8.40
2019-03-27T11:08:21.956Z,5.25
2019-03-27T11:13:25.983Z,4.83
2019-03-27T11:18:29.993Z,5.12
2019-03-27T11:23:33.989Z,5.75
2019-03-27T11:28:38.071Z,6.25
2019-03-27T11:33:42.077Z,5.97
2019-03-27T11:38:46.072Z,5.58
2019-03-27T11:43:55.140Z,5.62
2019-03-27T11:48:57.410Z,5.17
2019-03-27T11:54:02.244Z,4.08
2019-03-27T12:01:51.983Z,3.40
2019-03-27T12:06:56.693Z,3.77
2019-03-27T12:12:01.462Z,3.37
2019-03-27T12:17:06.289Z,4.80
2019-03-27T12:22:11.151Z,4.87
2019-03-27T12:27:15.958Z,3.92
2019-03-27T12:32:20.755Z,4.17
2019-03-27T12:37:25.746Z,4.03
2019-03-27T12:42:30.487Z,3.77
2019-03-27T12:47:35.203Z,4.50
2019-03-27T12:54:13.108Z,4.55
2019-03-27T12:59:17.841Z,5.30
2019-03-27T13:04:22.598Z,4.72
2019-03-27T13:09:27.315Z,4.67
2019-03-27T13:14:32.079Z,4.65
2019-03-27T13:19:36.794Z,4.67
2019-03-27T13:24:44.619Z,4.00
2019-03-27T13:29:49.793Z,2.50
2019-03-27T13:34:54.585Z,2.67
2019-03-27T13:39:59.991Z,3.22
2019-03-27T13:45:05.271Z,3.20
2019-03-27T13:50:12.889Z,3.20
2019-03-27T13:55:15.930Z,2.90
2019-03-27T14:00:20.086Z,2.67
2019-03-27T14:05:24.018Z,2.30
2019-03-27T14:10:27.969Z,2.65
2019-03-27T14:15:31.973Z,2.50
2019-03-27T14:20:36.959Z,2.80
2019-03-27T14:26:14.710Z,2.80
2019-03-27T14:31:19.504Z,2.70
2019-03-27T14:36:24.223Z,1.98
2019-03-27T14:41:29.103Z,2.40
2019-03-27T14:46:33.852Z,2.10
2019-03-27T14:51:38.579Z,2.50
2019-03-27T14:56:43.335Z,2.40
2019-03-27T15:01:48.224Z,2.60
2019-03-27T15:06:52.945Z,2.37
2019-03-27T15:11:57.697Z,2.60
2019-03-27T15:17:02.625Z,2.55
2019-03-27T15:22:21.404Z,2.83
2019-03-27T15:27:14.149Z,3.12
2019-03-27T15:32:18.896Z,2.60
2019-03-27T15:37:23.644Z,2.50
2019-03-27T15:42:28.376Z,2.02
2019-03-27T15:47:33.139Z,1.37
2019-03-27T15:52:37.939Z,1.50
2019-03-27T15:57:42.778Z,1.32
2019-03-27T16:02:47.593Z,1.75
2019-03-27T16:07:52.307Z,2.15
2019-03-27T16:12:57.141Z,2.20
2019-03-27T16:20:55.543Z,2.40
2019-03-27T16:26:00.279Z,2.47
2019-03-27T16:31:05.148Z,2.27
2019-03-27T16:36:09.878Z,2.62
2019-03-27T16:41:14.635Z,2.98
2019-03-27T16:46:19.427Z,3.47
2019-03-27T16:51:27.803Z,4.60
2019-03-27T16:56:32.693Z,4.40
2019-03-27T17:01:37.678Z,16.50
2019-03-27T17:06:42.453Z,6.03
2019-03-27T17:11:47.233Z,5.20
2019-03-27T17:16:52.136Z,4.67
2019-03-27T17:22:00.313Z,5.28
2019-03-27T17:27:05.153Z,5.37
2019-03-27T17:32:10.156Z,5.20
2019-03-27T17:37:14.983Z,4.92
2019-03-27T17:42:19.735Z,4.83
2019-03-27T17:47:24.491Z,4.95
2019-03-27T17:52:29.337Z,4.33
2019-03-27T17:57:34.189Z,4.08
2019-03-27T18:02:39.050Z,4.42
2019-03-27T18:07:43.827Z,4.35
2019-03-27T18:12:48.724Z,4.33
2019-03-27T18:17:54.059Z,4.03
2019-03-27T18:22:58.856Z,4.33
2019-03-27T18:28:03.849Z,3.98
2019-03-27T18:33:08.607Z,3.90
2019-03-27T18:38:13.610Z,4.00
2019-03-27T18:43:18.763Z,3.60
2019-03-27T18:48:23.604Z,4.10
2019-03-27T18:53:28.383Z,3.83
2019-03-27T18:58:33.173Z,4.10
2019-03-27T19:03:38.064Z,4.35
2019-03-27T19:08:43.433Z,3.92
2019-03-27T19:13:48.225Z,4.40
2019-03-27T19:18:53.014Z,4.00
2019-03-27T19:23:57.766Z,4.20
2019-03-27T19:29:02.567Z,3.90
2019-03-27T19:34:07.308Z,4.12
2019-03-27T19:39:12.105Z,3.77
2019-03-27T19:44:17.011Z,4.20
2019-03-27T19:49:21.865Z,4.33
2019-03-27T19:54:27.610Z,4.12
2019-03-27T19:59:32.634Z,4.25
2019-03-27T20:04:37.355Z,4.80
2019-03-27T20:09:42.236Z,4.15
2019-03-27T20:14:47.115Z,4.47
2019-03-27T20:19:51.975Z,4.72
2019-03-27T20:24:56.806Z,5.65
2019-03-27T20:30:01.655Z,6.97
2019-03-27T20:35:07.191Z,7.08
2019-03-27T20:40:14.400Z,7.33
2019-03-27T20:45:19.383Z,8.28
2019-03-27T20:50:26.994Z,8.55
2019-03-27T20:55:31.197Z,9.68
2019-03-27T21:00:36.745Z,10.15
2019-03-27T21:05:41.556Z,11.15
2019-03-27T21:10:46.487Z,12.28
2019-03-27T21:15:51.262Z,11.73
2019-03-27T21:20:56.089Z,10.58
2019-03-27T21:26:00.925Z,10.85
2019-03-27T21:31:05.722Z,10.95
2019-03-27T21:36:10.538Z,12.50
2019-03-27T21:41:15.392Z,13.60
2019-03-27T21:46:20.181Z,13.75
2019-03-27T21:51:25.346Z,12.75
2019-03-27T21:56:30.180Z,13.50
2019-03-27T22:01:35.129Z,14.53
2019-03-27T22:06:40.088Z,15.40
2019-03-27T22:11:44.866Z,16.67
2019-03-27T22:16:49.834Z,15.63
2019-03-27T22:21:54.687Z,15.48
2019-03-27T22:26:59.625Z,15.25
2019-03-27T22:32:04.609Z,15.53
2019-03-27T22:37:09.508Z,15.83
2019-03-27T22:42:14.386Z,16.20
2019-03-27T22:47:19.242Z,15.38
2019-03-27T22:52:24.049Z,15.85
2019-03-27T22:57:28.907Z,16.82
2019-03-27T23:02:33.810Z,15.55
2019-03-27T23:07:38.734Z,14.93
2019-03-27T23:12:43.590Z,15.35
2019-03-27T23:17:48.459Z,13.30
2019-03-27T23:22:53.244Z,13.95
2019-03-27T23:27:57.997Z,13.83
2019-03-27T23:33:02.738Z,13.38
2019-03-27T23:38:07.601Z,12.58
2019-03-27T23:43:12.537Z,12.70
2019-03-27T23:48:17.380Z,12.13
2019-03-27T23:53:22.259Z,11.40
2019-03-27T23:58:27.146Z,10.28
